sensor_id;sensor_type;location;lat;lon;timestamp;pressure;altitude;pressure_sealevel;temperature;humidity
60427;BME280;46274;47.168;27.604;2023-01-09T00:00:09;100120.25;;;-0.85;92.29
60427;BME280;46274;47.168;27.604;2023-01-09T00:06:12;100265.75;;;0.20;92.22
60427;BME280;46274;47.168;27.604;2023-01-09T00:12:15;100144.59;;;-0.51;91.93
60427;BME280;46274;47.168;27.604;2023-01-09T00:18:18;100281.13;;;0.29;92.22
60427;BME280;46274;47.168;27.604;2023-01-09T00:24:20;100268.22;;;0.23;92.14
60427;BME280;46274;47.168;27.604;2023-01-09T00:30:23;100276.56;;;0.31;92.35
60427;BME280;46274;47.168;27.604;2023-01-09T00:36:25;100264.94;;;0.32;92.26
60427;BME280;46274;47.168;27.604;2023-01-09T00:42:31;100253.09;;;0.36;92.74
60427;BME280;46274;47.168;27.604;2023-01-09T00:48:37;100214.81;;;0.37;92.04
60427;BME280;46274;47.168;27.604;2023-01-09T00:54:41;100240.63;;;0.50;92.06
60427;BME280;46274;47.168;27.604;2023-01-09T01:00:46;100235.47;;;0.59;92.31
60427;BME280;46274;47.168;27.604;2023-01-09T01:06:48;100219.06;;;0.53;92.84
60427;BME280;46274;47.168;27.604;2023-01-09T01:13:12;100059.72;;;-0.17;92.20
60427;BME280;46274;47.168;27.604;2023-01-09T01:19:14;100132.53;;;0.33;92.01
60427;BME280;46274;47.168;27.604;2023-01-09T01:25:17;99954.66;;;-0.63;92.19
60427;BME280;46274;47.168;27.604;2023-01-09T01:31:18;100101.19;;;0.36;92.45
60427;BME280;46274;47.168;27.604;2023-01-09T01:37:21;100140.75;;;0.67;93.28
60427;BME280;46274;47.168;27.604;2023-01-09T01:43:33;100107.69;;;0.69;92.97
60427;BME280;46274;47.168;27.604;2023-01-09T01:49:51;100104.56;;;0.38;92.98
60427;BME280;46274;47.168;27.604;2023-01-09T01:56:08;100138.78;;;0.81;93.06
60427;BME280;46274;47.168;27.604;2023-01-09T02:02:12;100132.78;;;0.91;93.58
60427;BME280;46274;47.168;27.604;2023-01-09T02:08:15;100113.31;;;1.01;93.28
60427;BME280;46274;47.168;27.604;2023-01-09T02:14:22;99921.22;;;-0.05;92.87
60427;BME280;46274;47.168;27.604;2023-01-09T02:20:51;100116.66;;;1.16;92.75
60427;BME280;46274;47.168;27.604;2023-01-09T02:27:21;100103.41;;;1.15;92.99
60427;BME280;46274;47.168;27.604;2023-01-09T02:40:12;100075.91;;;1.14;93.27
60427;BME280;46274;47.168;27.604;2023-01-09T02:46:19;100073.00;;;1.28;92.93
60427;BME280;46274;47.168;27.604;2023-01-09T02:59:31;100063.13;;;1.53;92.74
60427;BME280;46274;47.168;27.604;2023-01-09T03:05:54;100017.94;;;1.27;92.78
60427;BME280;46274;47.168;27.604;2023-01-09T03:12:03;100028.66;;;1.61;92.99
60427;BME280;46274;47.168;27.604;2023-01-09T03:18:09;99993.47;;;1.45;92.93
60427;BME280;46274;47.168;27.604;2023-01-09T03:24:15;99985.44;;;1.34;93.04
60427;BME280;46274;47.168;27.604;2023-01-09T03:30:17;99999.28;;;1.61;93.44
60427;BME280;46274;47.168;27.604;2023-01-09T03:36:21;100040.06;;;2.08;92.74
60427;BME280;46274;47.168;27.604;2023-01-09T03:42:24;100030.72;;;2.25;92.29
60427;BME280;46274;47.168;27.604;2023-01-09T03:48:27;99990.00;;;2.22;91.83
60427;BME280;46274;47.168;27.604;2023-01-09T03:54:29;100016.81;;;2.75;91.16
60427;BME280;46274;47.168;27.604;2023-01-09T04:00:31;99988.63;;;2.71;90.95
60427;BME280;46274;47.168;27.604;2023-01-09T04:06:34;100004.38;;;3.06;90.31
60427;BME280;46274;47.168;27.604;2023-01-09T04:12:36;100000.78;;;3.17;90.24
60427;BME280;46274;47.168;27.604;2023-01-09T04:18:41;99929.13;;;2.78;90.35
60427;BME280;46274;47.168;27.604;2023-01-09T04:24:43;99962.47;;;3.16;89.77
60427;BME280;46274;47.168;27.604;2023-01-09T04:30:46;99990.50;;;3.33;90.13
60427;BME280;46274;47.168;27.604;2023-01-09T04:36:48;99857.50;;;2.61;89.70
60427;BME280;46274;47.168;27.604;2023-01-09T04:42:50;99947.81;;;3.41;89.29
60427;BME280;46274;47.168;27.604;2023-01-09T04:48:55;99977.09;;;3.64;88.85
60427;BME280;46274;47.168;27.604;2023-01-09T04:54:58;99983.34;;;3.74;88.28
60427;BME280;46274;47.168;27.604;2023-01-09T05:01:00;99973.94;;;3.80;87.64
60427;BME280;46274;47.168;27.604;2023-01-09T05:07:03;99966.56;;;3.72;88.23
60427;BME280;46274;47.168;27.604;2023-01-09T05:13:05;99971.47;;;3.67;88.12
60427;BME280;46274;47.168;27.604;2023-01-09T05:19:08;99964.41;;;3.66;87.77
60427;BME280;46274;47.168;27.604;2023-01-09T05:25:10;99963.00;;;3.71;87.73
60427;BME280;46274;47.168;27.604;2023-01-09T05:31:12;99958.75;;;3.59;87.91
60427;BME280;46274;47.168;27.604;2023-01-09T05:37:15;99965.19;;;3.47;88.33
60427;BME280;46274;47.168;27.604;2023-01-09T05:43:17;99935.66;;;3.37;87.87
60427;BME280;46274;47.168;27.604;2023-01-09T05:49:21;99919.81;;;3.24;87.42
60427;BME280;46274;47.168;27.604;2023-01-09T05:55:26;99955.00;;;3.41;87.77
60427;BME280;46274;47.168;27.604;2023-01-09T06:01:29;99871.94;;;3.00;87.29
60427;BME280;46274;47.168;27.604;2023-01-09T06:07:34;99942.97;;;3.35;87.52
60427;BME280;46274;47.168;27.604;2023-01-09T06:13:40;99948.44;;;3.24;87.55
60427;BME280;46274;47.168;27.604;2023-01-09T06:19:42;99953.16;;;3.11;87.75
60427;BME280;46274;47.168;27.604;2023-01-09T06:25:45;99944.03;;;3.44;86.53
60427;BME280;46274;47.168;27.604;2023-01-09T06:31:47;99933.88;;;3.47;86.59
60427;BME280;46274;47.168;27.604;2023-01-09T06:37:50;99953.00;;;3.33;87.33
60427;BME280;46274;47.168;27.604;2023-01-09T06:43:53;99864.41;;;3.15;86.21
60427;BME280;46274;47.168;27.604;2023-01-09T06:49:55;99935.66;;;3.68;86.28
60427;BME280;46274;47.168;27.604;2023-01-09T06:55:59;99940.66;;;3.82;86.48
60427;BME280;46274;47.168;27.604;2023-01-09T07:02:05;99937.00;;;3.93;86.36
60427;BME280;46274;47.168;27.604;2023-01-09T07:08:08;99940.25;;;3.97;86.22
60427;BME280;46274;47.168;27.604;2023-01-09T07:14:17;99915.16;;;3.98;85.61
60427;BME280;46274;47.168;27.604;2023-01-09T07:20:23;99873.47;;;3.74;85.26
60427;BME280;46274;47.168;27.604;2023-01-09T07:26:27;99933.63;;;4.10;85.02
60427;BME280;46274;47.168;27.604;2023-01-09T07:32:32;99935.47;;;4.10;85.03
60427;BME280;46274;47.168;27.604;2023-01-09T07:38:35;99792.59;;;3.30;84.62
60427;BME280;46274;47.168;27.604;2023-01-09T07:44:38;99928.44;;;4.09;84.94
60427;BME280;46274;47.168;27.604;2023-01-09T07:50:42;99934.22;;;4.14;85.27
60427;BME280;46274;47.168;27.604;2023-01-09T07:56:45;99936.63;;;4.17;84.95
60427;BME280;46274;47.168;27.604;2023-01-09T08:02:53;99899.06;;;3.98;84.93
60427;BME280;46274;47.168;27.604;2023-01-09T08:08:57;99900.75;;;3.99;85.35
60427;BME280;46274;47.168;27.604;2023-01-09T08:14:59;99924.47;;;4.13;85.37
60427;BME280;46274;47.168;27.604;2023-01-09T08:21:01;99928.47;;;4.19;85.30
60427;BME280;46274;47.168;27.604;2023-01-09T08:27:04;99927.47;;;4.29;85.01
60427;BME280;46274;47.168;27.604;2023-01-09T08:33:06;99929.31;;;4.48;84.92
60427;BME280;46274;47.168;27.604;2023-01-09T08:39:08;99927.63;;;4.57;84.38
60427;BME280;46274;47.168;27.604;2023-01-09T08:45:11;99919.72;;;4.65;84.42
60427;BME280;46274;47.168;27.604;2023-01-09T08:51:33;99909.53;;;4.88;82.96
60427;BME280;46274;47.168;27.604;2023-01-09T08:57:35;99847.28;;;4.55;82.87
60427;BME280;46274;47.168;27.604;2023-01-09T09:03:39;99868.66;;;4.94;81.63
60427;BME280;46274;47.168;27.604;2023-01-09T09:09:41;99873.00;;;5.15;81.46
60427;BME280;46274;47.168;27.604;2023-01-09T09:15:44;99858.75;;;5.05;81.45
60427;BME280;46274;47.168;27.604;2023-01-09T09:21:56;99707.28;;;4.32;80.55
60427;BME280;46274;47.168;27.604;2023-01-09T09:28:00;99742.03;;;4.71;80.17
60427;BME280;46274;47.168;27.604;2023-01-09T09:34:06;99850.97;;;5.66;79.47
60427;BME280;46274;47.168;27.604;2023-01-09T09:40:16;99856.44;;;5.75;79.69
60427;BME280;46274;47.168;27.604;2023-01-09T09:52:50;99821.28;;;5.86;79.26
60427;BME280;46274;47.168;27.604;2023-01-09T09:59:05;99807.97;;;6.12;78.95
60427;BME280;46274;47.168;27.604;2023-01-09T10:05:42;99812.78;;;6.44;77.63
60427;BME280;46274;47.168;27.604;2023-01-09T10:12:12;99757.13;;;6.27;77.19
60427;BME280;46274;47.168;27.604;2023-01-09T10:18:30;99759.03;;;6.61;76.46
60427;BME280;46274;47.168;27.604;2023-01-09T10:24:59;99774.81;;;7.08;75.56
60427;BME280;46274;47.168;27.604;2023-01-09T10:37:33;99747.88;;;7.08;75.31
60427;BME280;46274;47.168;27.604;2023-01-09T10:43:48;99731.66;;;6.99;75.29
60427;BME280;46274;47.168;27.604;2023-01-09T10:49:57;99649.09;;;6.40;75.49
60427;BME280;46274;47.168;27.604;2023-01-09T10:56:18;99702.03;;;6.65;74.94
60427;BME280;46274;47.168;27.604;2023-01-09T11:02:33;99715.06;;;6.78;74.89
60427;BME280;46274;47.168;27.604;2023-01-09T11:08:39;99680.53;;;6.73;74.68
60427;BME280;46274;47.168;27.604;2023-01-09T11:14:45;99613.13;;;6.41;74.25
60427;BME280;46274;47.168;27.604;2023-01-09T11:20:47;99679.44;;;6.84;74.76
60427;BME280;46274;47.168;27.604;2023-01-09T11:26:52;99675.34;;;6.72;75.02
60427;BME280;46274;47.168;27.604;2023-01-09T11:33:32;99673.47;;;6.72;74.47
60427;BME280;46274;47.168;27.604;2023-01-09T11:39:40;99651.25;;;6.70;74.38
60427;BME280;46274;47.168;27.604;2023-01-09T11:45:52;99654.16;;;6.77;73.70
60427;BME280;46274;47.168;27.604;2023-01-09T11:52:17;99667.50;;;6.87;73.97
60427;BME280;46274;47.168;27.604;2023-01-09T11:58:31;99671.84;;;6.88;74.13
60427;BME280;46274;47.168;27.604;2023-01-09T12:05:00;99669.91;;;7.06;73.48
60427;BME280;46274;47.168;27.604;2023-01-09T12:11:38;99677.47;;;7.03;74.03
60427;BME280;46274;47.168;27.604;2023-01-09T12:24:32;99671.88;;;6.96;73.68
60427;BME280;46274;47.168;27.604;2023-01-09T12:50:09;99655.81;;;6.78;74.01
60427;BME280;46274;47.168;27.604;2023-01-09T12:56:28;99655.69;;;6.80;74.55
60427;BME280;46274;47.168;27.604;2023-01-09T13:02:44;99552.94;;;6.07;74.61
60427;BME280;46274;47.168;27.604;2023-01-09T13:09:10;99658.38;;;6.80;74.46
60427;BME280;46274;47.168;27.604;2023-01-09T13:15:28;99632.16;;;6.55;74.29
60427;BME280;46274;47.168;27.604;2023-01-09T13:21:31;99652.91;;;6.63;74.44
60427;BME280;46274;47.168;27.604;2023-01-09T13:27:38;99592.53;;;6.31;74.04
60427;BME280;46274;47.168;27.604;2023-01-09T13:33:54;99655.81;;;6.70;74.12
60427;BME280;46274;47.168;27.604;2023-01-09T13:40:03;99610.22;;;6.34;73.50
60427;BME280;46274;47.168;27.604;2023-01-09T13:46:10;99585.25;;;6.16;73.85
60427;BME280;46274;47.168;27.604;2023-01-09T13:52:33;99654.94;;;6.61;73.94
60427;BME280;46274;47.168;27.604;2023-01-09T14:04:57;99657.28;;;6.64;73.62
60427;BME280;46274;47.168;27.604;2023-01-09T14:11:01;99644.31;;;6.60;73.16
60427;BME280;46274;47.168;27.604;2023-01-09T14:17:17;99650.75;;;6.67;73.87
60427;BME280;46274;47.168;27.604;2023-01-09T14:23:30;99494.72;;;5.72;73.91
60427;BME280;46274;47.168;27.604;2023-01-09T14:36:27;99542.81;;;5.83;74.66
60427;BME280;46274;47.168;27.604;2023-01-09T14:42:31;99637.16;;;6.42;74.45
60427;BME280;46274;47.168;27.604;2023-01-09T14:48:34;99638.53;;;6.46;74.15
60427;BME280;46274;47.168;27.604;2023-01-09T14:54:42;99637.16;;;6.42;74.44
60427;BME280;46274;47.168;27.604;2023-01-09T15:01:10;99642.88;;;6.39;74.51
60427;BME280;46274;47.168;27.604;2023-01-09T15:07:19;99541.00;;;5.84;74.54
60427;BME280;46274;47.168;27.604;2023-01-09T15:13:44;99625.19;;;6.37;74.61
60427;BME280;46274;47.168;27.604;2023-01-09T15:19:48;99622.63;;;6.27;74.96
60427;BME280;46274;47.168;27.604;2023-01-09T15:25:50;99609.22;;;6.35;74.70
60427;BME280;46274;47.168;27.604;2023-01-09T15:32:04;99474.63;;;5.50;74.83
60427;BME280;46274;47.168;27.604;2023-01-09T15:38:13;99595.19;;;6.23;74.95
60427;BME280;46274;47.168;27.604;2023-01-09T15:44:25;99599.09;;;6.29;74.80
60427;BME280;46274;47.168;27.604;2023-01-09T15:50:37;99612.91;;;6.34;75.13
60427;BME280;46274;47.168;27.604;2023-01-09T15:56:40;99402.53;;;5.11;74.87
60427;BME280;46274;47.168;27.604;2023-01-09T16:02:46;99612.78;;;6.44;74.42
60427;BME280;46274;47.168;27.604;2023-01-09T16:09:21;99601.31;;;6.33;74.69
60427;BME280;46274;47.168;27.604;2023-01-09T16:15:25;99608.88;;;6.30;75.35
60427;BME280;46274;47.168;27.604;2023-01-09T16:21:32;99578.09;;;6.32;75.09
60427;BME280;46274;47.168;27.604;2023-01-09T16:27:35;99572.38;;;6.27;75.16
60427;BME280;46274;47.168;27.604;2023-01-09T16:33:43;99574.50;;;6.24;75.25
60427;BME280;46274;47.168;27.604;2023-01-09T16:46:07;99572.47;;;6.18;75.47
60427;BME280;46274;47.168;27.604;2023-01-09T16:52:16;99545.59;;;6.18;75.22
60427;BME280;46274;47.168;27.604;2023-01-09T16:58:30;99575.22;;;6.26;75.43
60427;BME280;46274;47.168;27.604;2023-01-09T17:04:32;99500.22;;;5.62;75.98
60427;BME280;46274;47.168;27.604;2023-01-09T17:10:35;99583.59;;;6.23;76.00
60427;BME280;46274;47.168;27.604;2023-01-09T17:16:37;99546.63;;;6.25;75.83
60427;BME280;46274;47.168;27.604;2023-01-09T17:22:42;99499.72;;;5.93;75.95
60427;BME280;46274;47.168;27.604;2023-01-09T17:28:49;99582.31;;;6.35;76.17
60427;BME280;46274;47.168;27.604;2023-01-09T17:34:52;99407.19;;;5.35;76.00
60427;BME280;46274;47.168;27.604;2023-01-09T17:40:54;99478.88;;;5.61;76.75
60427;BME280;46274;47.168;27.604;2023-01-09T17:46:56;99599.47;;;6.42;76.76
60427;BME280;46274;47.168;27.604;2023-01-09T17:52:59;99556.03;;;6.29;76.56
60427;BME280;46274;47.168;27.604;2023-01-09T17:59:02;99558.47;;;6.40;76.70
60427;BME280;46274;47.168;27.604;2023-01-09T18:05:04;99592.16;;;6.61;76.66
60427;BME280;46274;47.168;27.604;2023-01-09T18:11:11;99597.94;;;6.74;76.32
60427;BME280;46274;47.168;27.604;2023-01-09T18:17:15;99553.84;;;6.67;76.13
60427;BME280;46274;47.168;27.604;2023-01-09T18:23:17;99570.84;;;6.75;76.12
60427;BME280;46274;47.168;27.604;2023-01-09T18:29:21;99585.69;;;6.96;75.69
60427;BME280;46274;47.168;27.604;2023-01-09T18:35:23;99539.03;;;6.71;76.00
60427;BME280;46274;47.168;27.604;2023-01-09T18:41:28;99571.41;;;7.04;75.35
60427;BME280;46274;47.168;27.604;2023-01-09T18:47:32;99536.41;;;7.20;74.42
60427;BME280;46274;47.168;27.604;2023-01-09T18:53:34;99447.84;;;6.68;74.57
60427;BME280;46274;47.168;27.604;2023-01-09T18:59:36;99534.03;;;7.25;74.27
60427;BME280;46274;47.168;27.604;2023-01-09T19:05:40;99446.31;;;6.73;74.03
60427;BME280;46274;47.168;27.604;2023-01-09T19:11:42;99536.06;;;7.39;74.14
60427;BME280;46274;47.168;27.604;2023-01-09T19:17:49;99512.81;;;7.30;74.19
60427;BME280;46274;47.168;27.604;2023-01-09T19:23:52;99416.38;;;6.68;74.09
60427;BME280;46274;47.168;27.604;2023-01-09T19:30:00;99468.91;;;7.13;74.55
60427;BME280;46274;47.168;27.604;2023-01-09T19:36:03;99499.34;;;7.30;73.99
60427;BME280;46274;47.168;27.604;2023-01-09T19:42:06;99526.81;;;7.42;73.93
60427;BME280;46274;47.168;27.604;2023-01-09T19:48:12;99339.16;;;6.36;73.71
60427;BME280;46274;47.168;27.604;2023-01-09T19:54:14;99518.06;;;7.32;74.03
60427;BME280;46274;47.168;27.604;2023-01-09T20:00:17;99519.22;;;7.37;73.63
60427;BME280;46274;47.168;27.604;2023-01-09T20:06:20;99518.91;;;7.24;73.71
60427;BME280;46274;47.168;27.604;2023-01-09T20:12:30;99497.34;;;7.08;73.59
60427;BME280;46274;47.168;27.604;2023-01-09T20:18:34;99510.81;;;7.16;73.47
60427;BME280;46274;47.168;27.604;2023-01-09T20:24:42;99492.97;;;6.98;73.49
60427;BME280;46274;47.168;27.604;2023-01-09T20:30:46;99503.91;;;7.05;73.61
60427;BME280;46274;47.168;27.604;2023-01-09T20:36:49;99508.09;;;6.99;73.89
60427;BME280;46274;47.168;27.604;2023-01-09T20:42:51;99330.41;;;6.09;73.71
60427;BME280;46274;47.168;27.604;2023-01-09T20:49:00;99483.22;;;6.89;74.12
60427;BME280;46274;47.168;27.604;2023-01-09T20:55:13;99431.34;;;6.54;74.12
60427;BME280;46274;47.168;27.604;2023-01-09T21:01:20;99477.28;;;6.77;74.27
60427;BME280;46274;47.168;27.604;2023-01-09T21:07:29;99474.94;;;6.66;74.47
60427;BME280;46274;47.168;27.604;2023-01-09T21:13:42;99470.03;;;6.62;74.51
60427;BME280;46274;47.168;27.604;2023-01-09T21:19:44;99473.41;;;6.64;74.33
60427;BME280;46274;47.168;27.604;2023-01-09T21:25:47;99474.59;;;6.61;74.60
60427;BME280;46274;47.168;27.604;2023-01-09T21:31:58;99388.56;;;6.19;74.38
60427;BME280;46274;47.168;27.604;2023-01-09T21:38:01;99468.34;;;6.61;74.47
60427;BME280;46274;47.168;27.604;2023-01-09T21:44:03;99475.25;;;6.63;74.57
60427;BME280;46274;47.168;27.604;2023-01-09T21:50:29;99467.00;;;6.57;74.46
60427;BME280;46274;47.168;27.604;2023-01-09T21:56:31;99467.47;;;6.44;74.57
60427;BME280;46274;47.168;27.604;2023-01-09T22:02:36;99440.06;;;6.40;74.17
60427;BME280;46274;47.168;27.604;2023-01-09T22:08:41;99475.09;;;6.65;74.23
60427;BME280;46274;47.168;27.604;2023-01-09T22:14:43;99461.97;;;6.70;73.84
60427;BME280;46274;47.168;27.604;2023-01-09T22:20:49;99463.00;;;6.69;74.22
60427;BME280;46274;47.168;27.604;2023-01-09T22:26:51;99447.00;;;6.67;74.18
60427;BME280;46274;47.168;27.604;2023-01-09T22:32:53;99460.94;;;6.63;73.98
60427;BME280;46274;47.168;27.604;2023-01-09T22:39:02;99450.38;;;6.69;73.41
60427;BME280;46274;47.168;27.604;2023-01-09T22:45:05;99445.81;;;6.53;73.15
60427;BME280;46274;47.168;27.604;2023-01-09T22:51:16;99365.66;;;5.98;72.24
60427;BME280;46274;47.168;27.604;2023-01-09T22:57:20;99460.78;;;6.56;71.82
60427;BME280;46274;47.168;27.604;2023-01-09T23:03:25;99449.47;;;6.44;71.75
60427;BME280;46274;47.168;27.604;2023-01-09T23:09:30;99464.31;;;6.48;71.69
60427;BME280;46274;47.168;27.604;2023-01-09T23:15:32;99443.41;;;6.42;71.24
60427;BME280;46274;47.168;27.604;2023-01-09T23:21:35;99436.69;;;6.38;71.07
60427;BME280;46274;47.168;27.604;2023-01-09T23:27:44;99364.22;;;5.86;71.13
60427;BME280;46274;47.168;27.604;2023-01-09T23:33:54;99478.94;;;6.54;71.18
60427;BME280;46274;47.168;27.604;2023-01-09T23:39:59;99426.88;;;6.13;71.26
60427;BME280;46274;47.168;27.604;2023-01-09T23:46:04;99399.31;;;6.10;70.97
60427;BME280;46274;47.168;27.604;2023-01-09T23:52:06;99453.69;;;6.55;70.69
60427;BME280;46274;47.168;27.604;2023-01-09T23:58:09;99493.25;;;6.63;71.38
